Terminal Aerodrome Forecast
Issued by NWS

Home | Current Version | Previous Version | Text Only | Print | Product List | Glossary Off
Versions: 1 2 3 4 5 6 7 8 9 10 11 12

973
FTUS43 KMPX 241722
TAFAXN
TAF
KAXN 241722Z 2418/2518 09008KT P6SM SCT035 BKN050
     FM242100 13008KT P6SM SCT035 SCT050
     FM251400 15016G24KT P6SM SCT050 BKN090=

USA.gov is the U.S. government's official web portal to all federal, state and local government web resources and services.